MV Hansa Augsburg — A8PN3 — position and weather

sailwx.info

Track history (hours):
 
Tides and Currents Weather Stations Pressure Air Temp Water Temp Dewpoint Dewpoint Depression Visibility Wind Speed Wind Dir Waves Ship Positions

MV Hansa Augsburg

Last reported at 2018-Jun-16 01:36 UTC. Time now 2018-Jun-19 02:34 UTC.
Position N 25°31' W 079°42'.

Length 175 m; draft 9.4 m.

Type: Ship (hazmat cat A). MMSI: 636091575.

Date/timePositionNaut miles runAvg speedWind from/ knotsBaromVisibWave heightAir tempDewpointWater temp
2018-Jun-16 01:36N 25°31' W 079°42'218.4
2018-Jun-16 01:30N 25°32' W 079°44'817.1
2018-Jun-16 01:00N 25°36' W 079°52'612.2
2018-Jun-16 00:30N 25°41' W 079°56'612.7
2018-Jun-16 00:00N 25°45' W 080°01'612.1
2018-Jun-15 23:30N 25°46' W 080°08'2 3.9
2018-Jun-15 23:00N 25°46' W 080°10'0 0.1
2018-Jun-15 22:30N 25°46' W 080°10'0 0.0
2018-Jun-15 22:01N 25°46' W 080°10'0 0.0
2018-Jun-15 21:31N 25°46' W 080°10'0 0.0
2018-Jun-15 21:01N 25°46' W 080°10'0 0.0
2018-Jun-15 20:30N 25°46' W 080°10'0 0.0
2018-Jun-15 20:00N 25°46' W 080°10'0 0.0
2018-Jun-15 19:30N 25°46' W 080°10'0 0.0
2018-Jun-15 19:00N 25°46' W 080°10'0 0.0
2018-Jun-15 18:30N 25°46' W 080°10'0 0.0
2018-Jun-15 18:00N 25°46' W 080°10'0 0.0
2018-Jun-15 17:30N 25°46' W 080°10'0 0.0
2018-Jun-15 17:01N 25°46' W 080°10'0 0.0
2018-Jun-15 16:31N 25°46' W 080°10'0 0.0
2018-Jun-15 16:00N 25°46' W 080°10'0 0.0
2018-Jun-15 15:30N 25°46' W 080°10'0 0.0
2018-Jun-15 15:01N 25°46' W 080°10'0 0.0
2018-Jun-15 14:31N 25°46' W 080°10'0 0.0
2018-Jun-15 14:01N 25°46' W 080°10'0 0.0
2018-Jun-15 13:31N 25°46' W 080°10'0 0.0
2018-Jun-15 13:01N 25°46' W 080°10'0 0.0
2018-Jun-15 12:30N 25°46' W 080°10'0 0.0
2018-Jun-15 12:01N 25°46' W 080°10'0 0.0
2018-Jun-15 11:31N 25°46' W 080°10'0 0.0
2018-Jun-15 11:00N 25°46' W 080°10'0 0.0
2018-Jun-15 10:31N 25°46' W 080°10'0 0.0
2018-Jun-15 10:00N 25°46' W 080°10'0 0.0
2018-Jun-15 09:31N 25°46' W 080°10'0 0.0
2018-Jun-15 08:59N 25°46' W 080°10'0 0.0
2018-Jun-15 08:30N 25°46' W 080°10'0 0.0
2018-Jun-15 08:01N 25°46' W 080°10'0 0.0
2018-Jun-15 07:30N 25°46' W 080°10'0 0.0
2018-Jun-15 07:00N 25°46' W 080°10'0 0.0
2018-Jun-15 06:30N 25°46' W 080°10'0 0.0
2018-Jun-15 06:01N 25°46' W 080°10'0 0.0
2018-Jun-15 05:30N 25°46' W 080°10'0 0.0
2018-Jun-15 05:00N 25°46' W 080°10'0 0.0
2018-Jun-15 04:30N 25°46' W 080°10'0 0.0
2018-Jun-15 04:00N 25°46' W 080°10'0 0.0
2018-Jun-15 03:30N 25°46' W 080°10'0 0.0
2018-Jun-15 03:01N 25°46' W 080°10'0 0.0
2018-Jun-15 02:30N 25°46' W 080°10'0 0.0
2018-Jun-15 02:01N 25°46' W 080°10'0 0.0
2018-Jun-15 01:31N 25°46' W 080°10'0 0.0
2018-Jun-15 01:01N 25°46' W 080°10'0 0.0
2018-Jun-15 00:31N 25°46' W 080°10'0 0.0
2018-Jun-15 00:01N 25°46' W 080°10'0 0.0
2018-Jun-14 23:31N 25°46' W 080°10'0 0.0
2018-Jun-14 23:01N 25°46' W 080°10'0 0.0
2018-Jun-14 22:31N 25°46' W 080°10'0 0.0
2018-Jun-14 22:01N 25°46' W 080°10'0 0.0
2018-Jun-14 21:30N 25°46' W 080°10'0 0.0
2018-Jun-14 21:00N 25°46' W 080°10'0 0.0
2018-Jun-14 20:29N 25°46' W 080°10'0 0.0
2018-Jun-14 20:00N 25°46' W 080°10'0 0.0
2018-Jun-14 19:30N 25°46' W 080°10'0 0.0
2018-Jun-14 19:01N 25°46' W 080°10'0 0.0
2018-Jun-14 18:31N 25°46' W 080°10'0 0.0
2018-Jun-14 18:00N 25°46' W 080°10'0 0.0
2018-Jun-14 17:31N 25°46' W 080°10'0 0.0
2018-Jun-14 17:01N 25°46' W 080°10'0 0.0
2018-Jun-14 16:30N 25°46' W 080°10'2 4.0
2018-Jun-14 16:00N 25°46' W 080°08'4 7.3
2018-Jun-14 15:30N 25°46' W 080°04'1 2.4
2018-Jun-14 15:00N 25°46' W 080°03'510.6
2018-Jun-14 14:30N 25°43' W 079°58'713.7
2018-Jun-14 14:00N 25°39' W 079°52'713.9
2018-Jun-14 13:30N 25°34' W 079°46'714.0
2018-Jun-14 13:00N 25°28' W 079°42'  
2018-Jun-07 03:49N 10°22' W 075°43'617.9
2018-Jun-07 03:30N 10°20' W 075°38'511.0
2018-Jun-07 03:00N 10°20' W 075°32'4 8.1
2018-Jun-07 02:28N 10°24' W 075°32'0 0.6
2018-Jun-07 01:46N 10°24' W 075°32'0 0.0
2018-Jun-07 01:10N 10°24' W 075°32'0 0.0
2018-Jun-07 00:58N 10°24' W 075°32'0 0.0
2018-Jun-07 00:25N 10°24' W 075°32'0 0.0
2018-Jun-06 23:43N 10°24' W 075°32'0 0.0
2018-Jun-06 23:28N 10°24' W 075°32'0 0.0
2018-Jun-06 22:58N 10°24' W 075°32'0 0.0
2018-Jun-06 22:22N 10°24' W 075°32'0 0.0
2018-Jun-06 21:58N 10°24' W 075°32'0 0.0
2018-Jun-06 21:22N 10°24' W 075°32'0 0.0
2018-Jun-06 20:55N 10°24' W 075°32'0 0.0
2018-Jun-06 20:31N 10°24' W 075°32'0 0.0
2018-Jun-06 20:01N 10°24' W 075°32'0 0.0
2018-Jun-06 19:30N 10°24' W 075°32'0 0.0
2018-Jun-06 18:57N 10°24' W 075°32'0 0.0
2018-Jun-06 18:21N 10°24' W 075°32'0 0.0
2018-Jun-06 18:00N 10°24' W 075°32'0 0.0
2018-Jun-06 17:24N 10°24' W 075°32'0 0.0
2018-Jun-06 17:00N 10°24' W 075°32'2 4.0
2018-Jun-06 16:30N 10°22' W 075°32'5 9.3
2018-Jun-06 15:58N 10°19' W 075°36'1 2.1
2018-Jun-06 15:30N 10°19' W 075°37'510.0
2018-Jun-06 15:00N 10°21' W 075°41'6613.0
2018-Jun-06 09:55N 10°58' W 074°46'0 0.0
2018-Jun-06 09:25N 10°58' W 074°46'0 0.0
2018-Jun-06 08:49N 10°58' W 074°46'0 0.0
2018-Jun-06 07:55N 10°58' W 074°46'0 0.0
2018-Jun-06 07:25N 10°58' W 074°46'0 0.0
2018-Jun-06 06:49N 10°58' W 074°46'0 0.0
2018-Jun-06 06:25N 10°58' W 074°46'0 0.0
2018-Jun-06 05:55N 10°58' W 074°46'0 0.0
2018-Jun-06 05:19N 10°58' W 074°46'0 0.0
2018-Jun-06 04:55N 10°58' W 074°46'0 0.0
2018-Jun-06 04:25N 10°58' W 074°46'0 0.0
2018-Jun-06 03:55N 10°58' W 074°46'0 0.0
2018-Jun-06 03:25N 10°58' W 074°46'0 0.0
2018-Jun-06 02:55N 10°58' W 074°46'0 0.0
2018-Jun-06 02:25N 10°58' W 074°46'0 0.0
2018-Jun-06 01:55N 10°58' W 074°46'  
Track history (hours):
 
Tides and Currents Weather Stations Pressure Air Temp Water Temp Dewpoint Dewpoint Depression Visibility Wind Speed Wind Dir Waves Ship Positions

MV Hansa Augsburg

Last reported at 2018-Jun-16 01:36 UTC. Time now 2018-Jun-19 02:34 UTC.
Position N 25°31' W 079°42'.

Length 175 m; draft 9.4 m.

Type: Ship (hazmat cat A). MMSI: 636091575.

Date/timePositionNaut miles runAvg speedWind from/ knotsBaromVisibWave heightAir tempDewpointWater temp
2018-Jun-16 01:36N 25°31' W 079°42'218.4
2018-Jun-16 01:30N 25°32' W 079°44'817.1
2018-Jun-16 01:00N 25°36' W 079°52'612.2
2018-Jun-16 00:30N 25°41' W 079°56'612.7
2018-Jun-16 00:00N 25°45' W 080°01'612.1
2018-Jun-15 23:30N 25°46' W 080°08'2 3.9
2018-Jun-15 23:00N 25°46' W 080°10'0 0.1
2018-Jun-15 22:30N 25°46' W 080°10'0 0.0
2018-Jun-15 22:01N 25°46' W 080°10'0 0.0
2018-Jun-15 21:31N 25°46' W 080°10'0 0.0
2018-Jun-15 21:01N 25°46' W 080°10'0 0.0
2018-Jun-15 20:30N 25°46' W 080°10'0 0.0
2018-Jun-15 20:00N 25°46' W 080°10'0 0.0
2018-Jun-15 19:30N 25°46' W 080°10'0 0.0
2018-Jun-15 19:00N 25°46' W 080°10'0 0.0
2018-Jun-15 18:30N 25°46' W 080°10'0 0.0
2018-Jun-15 18:00N 25°46' W 080°10'0 0.0
2018-Jun-15 17:30N 25°46' W 080°10'0 0.0
2018-Jun-15 17:01N 25°46' W 080°10'0 0.0
2018-Jun-15 16:31N 25°46' W 080°10'0 0.0
2018-Jun-15 16:00N 25°46' W 080°10'0 0.0
2018-Jun-15 15:30N 25°46' W 080°10'0 0.0
2018-Jun-15 15:01N 25°46' W 080°10'0 0.0
2018-Jun-15 14:31N 25°46' W 080°10'0 0.0
2018-Jun-15 14:01N 25°46' W 080°10'0 0.0
2018-Jun-15 13:31N 25°46' W 080°10'0 0.0
2018-Jun-15 13:01N 25°46' W 080°10'0 0.0
2018-Jun-15 12:30N 25°46' W 080°10'0 0.0
2018-Jun-15 12:01N 25°46' W 080°10'0 0.0
2018-Jun-15 11:31N 25°46' W 080°10'0 0.0
2018-Jun-15 11:00N 25°46' W 080°10'0 0.0
2018-Jun-15 10:31N 25°46' W 080°10'0 0.0
2018-Jun-15 10:00N 25°46' W 080°10'0 0.0
2018-Jun-15 09:31N 25°46' W 080°10'0 0.0
2018-Jun-15 08:59N 25°46' W 080°10'0 0.0
2018-Jun-15 08:30N 25°46' W 080°10'0 0.0
2018-Jun-15 08:01N 25°46' W 080°10'0 0.0
2018-Jun-15 07:30N 25°46' W 080°10'0 0.0
2018-Jun-15 07:00N 25°46' W 080°10'0 0.0
2018-Jun-15 06:30N 25°46' W 080°10'0 0.0
2018-Jun-15 06:01N 25°46' W 080°10'0 0.0
2018-Jun-15 05:30N 25°46' W 080°10'0 0.0
2018-Jun-15 05:00N 25°46' W 080°10'0 0.0
2018-Jun-15 04:30N 25°46' W 080°10'0 0.0
2018-Jun-15 04:00N 25°46' W 080°10'0 0.0
2018-Jun-15 03:30N 25°46' W 080°10'0 0.0
2018-Jun-15 03:01N 25°46' W 080°10'0 0.0
2018-Jun-15 02:30N 25°46' W 080°10'0 0.0
2018-Jun-15 02:01N 25°46' W 080°10'0 0.0
2018-Jun-15 01:31N 25°46' W 080°10'0 0.0
2018-Jun-15 01:01N 25°46' W 080°10'0 0.0
2018-Jun-15 00:31N 25°46' W 080°10'0 0.0
2018-Jun-15 00:01N 25°46' W 080°10'0 0.0
2018-Jun-14 23:31N 25°46' W 080°10'0 0.0
2018-Jun-14 23:01N 25°46' W 080°10'0 0.0
2018-Jun-14 22:31N 25°46' W 080°10'0 0.0
2018-Jun-14 22:01N 25°46' W 080°10'0 0.0
2018-Jun-14 21:30N 25°46' W 080°10'0 0.0
2018-Jun-14 21:00N 25°46' W 080°10'0 0.0
2018-Jun-14 20:29N 25°46' W 080°10'0 0.0
2018-Jun-14 20:00N 25°46' W 080°10'0 0.0
2018-Jun-14 19:30N 25°46' W 080°10'0 0.0
2018-Jun-14 19:01N 25°46' W 080°10'0 0.0
2018-Jun-14 18:31N 25°46' W 080°10'0 0.0
2018-Jun-14 18:00N 25°46' W 080°10'0 0.0
2018-Jun-14 17:31N 25°46' W 080°10'0 0.0
2018-Jun-14 17:01N 25°46' W 080°10'0 0.0
2018-Jun-14 16:30N 25°46' W 080°10'2 4.0
2018-Jun-14 16:00N 25°46' W 080°08'4 7.3
2018-Jun-14 15:30N 25°46' W 080°04'1 2.4
2018-Jun-14 15:00N 25°46' W 080°03'510.6
2018-Jun-14 14:30N 25°43' W 079°58'713.7
2018-Jun-14 14:00N 25°39' W 079°52'713.9
2018-Jun-14 13:30N 25°34' W 079°46'714.0
2018-Jun-14 13:00N 25°28' W 079°42'  
2018-Jun-07 03:49N 10°22' W 075°43'617.9
2018-Jun-07 03:30N 10°20' W 075°38'511.0
2018-Jun-07 03:00N 10°20' W 075°32'4 8.1
2018-Jun-07 02:28N 10°24' W 075°32'0 0.6
2018-Jun-07 01:46N 10°24' W 075°32'0 0.0
2018-Jun-07 01:10N 10°24' W 075°32'0 0.0
2018-Jun-07 00:58N 10°24' W 075°32'0 0.0
2018-Jun-07 00:25N 10°24' W 075°32'0 0.0
2018-Jun-06 23:43N 10°24' W 075°32'0 0.0
2018-Jun-06 23:28N 10°24' W 075°32'0 0.0
2018-Jun-06 22:58N 10°24' W 075°32'0 0.0
2018-Jun-06 22:22N 10°24' W 075°32'0 0.0
2018-Jun-06 21:58N 10°24' W 075°32'0 0.0
2018-Jun-06 21:22N 10°24' W 075°32'0 0.0
2018-Jun-06 20:55N 10°24' W 075°32'0 0.0
2018-Jun-06 20:31N 10°24' W 075°32'0 0.0
2018-Jun-06 20:01N 10°24' W 075°32'0 0.0
2018-Jun-06 19:30N 10°24' W 075°32'0 0.0
2018-Jun-06 18:57N 10°24' W 075°32'0 0.0
2018-Jun-06 18:21N 10°24' W 075°32'0 0.0
2018-Jun-06 18:00N 10°24' W 075°32'0 0.0
2018-Jun-06 17:24N 10°24' W 075°32'0 0.0
2018-Jun-06 17:00N 10°24' W 075°32'2 4.0
2018-Jun-06 16:30N 10°22' W 075°32'5 9.3
2018-Jun-06 15:58N 10°19' W 075°36'1 2.1
2018-Jun-06 15:30N 10°19' W 075°37'510.0
2018-Jun-06 15:00N 10°21' W 075°41'6613.0
2018-Jun-06 09:55N 10°58' W 074°46'0 0.0
2018-Jun-06 09:25N 10°58' W 074°46'0 0.0
2018-Jun-06 08:49N 10°58' W 074°46'0 0.0
2018-Jun-06 07:55N 10°58' W 074°46'0 0.0
2018-Jun-06 07:25N 10°58' W 074°46'0 0.0
2018-Jun-06 06:49N 10°58' W 074°46'0 0.0
2018-Jun-06 06:25N 10°58' W 074°46'0 0.0
2018-Jun-06 05:55N 10°58' W 074°46'0 0.0
2018-Jun-06 05:19N 10°58' W 074°46'0 0.0
2018-Jun-06 04:55N 10°58' W 074°46'0 0.0
2018-Jun-06 04:25N 10°58' W 074°46'0 0.0
2018-Jun-06 03:55N 10°58' W 074°46'0 0.0
2018-Jun-06 03:25N 10°58' W 074°46'0 0.0
2018-Jun-06 02:55N 10°58' W 074°46'0 0.0
2018-Jun-06 02:25N 10°58' W 074°46'0 0.0
2018-Jun-06 01:55N 10°58' W 074°46'  

Dump ship's entire track history